createdAt,value
2022-11-04T00:00:35.606Z,76.50
2022-11-04T00:03:02.457Z,76.60
2022-11-04T00:05:29.546Z,77.40
2022-11-04T00:08:15.314Z,76.90
2022-11-04T00:11:00.639Z,76.90
2022-11-04T00:13:30.929Z,76.90
2022-11-04T00:16:20.263Z,77.10
2022-11-04T00:18:47.830Z,77.20
2022-11-04T00:21:33.253Z,77.10
2022-11-04T00:24:18.689Z,77.20
2022-11-04T00:27:04.096Z,77.30
2022-11-04T00:29:31.337Z,77.30
2022-11-04T00:32:16.373Z,77.40
2022-11-04T00:34:43.729Z,77.60
2022-11-04T00:37:10.605Z,77.70
2022-11-04T00:39:37.523Z,78.50
2022-11-04T00:42:04.444Z,77.90
2022-11-04T00:44:31.339Z,78.10
2022-11-04T00:46:58.243Z,78.30
2022-11-04T00:49:25.612Z,78.30
2022-11-04T00:51:52.488Z,78.50
2022-11-04T00:54:19.456Z,78.60
2022-11-04T00:56:48.582Z,78.80
2022-11-04T00:59:15.691Z,78.90
2022-11-04T01:01:43.070Z,79.00
2022-11-04T01:04:10.353Z,79.10
2022-11-04T01:06:37.363Z,79.20
2022-11-04T01:09:08.281Z,79.30
2022-11-04T01:11:35.594Z,79.50
2022-11-04T01:14:02.503Z,79.50
2022-11-04T01:16:29.591Z,79.70
2022-11-04T01:18:57.165Z,79.70
2022-11-04T01:21:24.362Z,79.90
2022-11-04T01:23:51.460Z,80.10
2022-11-04T01:26:23.435Z,80.40
2022-11-04T01:28:52.051Z,80.70
2022-11-04T01:31:22.187Z,80.90
2022-11-04T01:33:51.329Z,81.10
2022-11-04T01:36:19.280Z,81.30
2022-11-04T01:38:46.273Z,81.50
2022-11-04T01:41:33.744Z,81.60
2022-11-04T01:44:43.437Z,82.10
2022-11-04T01:47:36.458Z,82.00
2022-11-04T01:50:25.417Z,81.90
2022-11-04T01:53:12.200Z,81.90
2022-11-04T01:55:47.602Z,81.90
2022-11-04T01:58:18.505Z,81.90
2022-11-04T02:00:46.028Z,81.90
2022-11-04T02:03:24.679Z,81.90
2022-11-04T02:05:51.912Z,81.90
2022-11-04T02:08:18.955Z,81.90
2022-11-04T02:10:54.104Z,82.50
2022-11-04T02:13:21.060Z,81.80
2022-11-04T02:16:14.943Z,81.60
2022-11-04T02:19:36.340Z,81.60
2022-11-04T02:22:42.310Z,81.60
2022-11-04T02:26:06.882Z,81.40
2022-11-04T02:29:27.102Z,81.40
2022-11-04T02:32:09.007Z,81.10
2022-11-04T02:35:05.144Z,80.80
2022-11-04T02:38:03.876Z,80.90
2022-11-04T02:41:00.761Z,80.60
2022-11-04T02:43:46.332Z,80.70
2022-11-04T02:46:38.049Z,80.40
2022-11-04T02:49:15.765Z,80.30
2022-11-04T02:51:54.290Z,80.40
2022-11-04T02:54:35.690Z,80.50
2022-11-04T02:57:07.442Z,80.50
2022-11-04T02:59:53.371Z,80.60
2022-11-04T03:02:50.249Z,80.80
2022-11-04T03:05:28.663Z,80.70
2022-11-04T03:08:02.146Z,80.70
2022-11-04T03:10:39.246Z,80.60
2022-11-04T03:13:25.782Z,80.60
2022-11-04T03:15:59.966Z,80.60
2022-11-04T03:18:57.142Z,80.60
2022-11-04T03:21:26.202Z,80.70
2022-11-04T03:23:54.159Z,80.70
2022-11-04T03:26:41.927Z,80.80
2022-11-04T03:29:14.614Z,81.10
2022-11-04T03:32:01.800Z,81.10
2022-11-04T03:34:29.133Z,81.20
2022-11-04T03:36:56.868Z,81.30
2022-11-04T03:39:24.312Z,81.50
2022-11-04T03:41:56.688Z,81.60
2022-11-04T03:44:24.514Z,81.70
2022-11-04T03:46:55.035Z,81.80
2022-11-04T03:49:23.572Z,82.00
2022-11-04T03:51:52.155Z,82.10
2022-11-04T03:54:19.916Z,82.10
2022-11-04T03:57:18.266Z,82.20
2022-11-04T03:59:53.276Z,82.30
2022-11-04T04:02:58.835Z,82.30
2022-11-04T04:05:54.030Z,82.60
2022-11-04T04:08:38.803Z,82.50
2022-11-04T04:11:21.307Z,82.40
2022-11-04T04:14:36.351Z,82.30
2022-11-04T04:17:37.097Z,82.50
2022-11-04T04:20:11.244Z,82.20
2022-11-04T04:22:48.302Z,82.10
2022-11-04T04:25:36.470Z,82.10
2022-11-04T04:28:04.550Z,82.00
2022-11-04T04:30:31.688Z,81.80
2022-11-04T04:33:11.906Z,81.90
2022-11-04T04:35:47.324Z,81.80
2022-11-04T04:38:42.506Z,81.80
2022-11-04T04:41:42.268Z,81.70
2022-11-04T04:44:45.680Z,81.70
2022-11-04T04:47:20.002Z,81.60
2022-11-04T04:49:56.314Z,81.60
2022-11-04T04:52:27.912Z,81.50
2022-11-04T04:54:54.830Z,81.50
2022-11-04T04:57:21.738Z,81.50
2022-11-04T04:59:48.660Z,81.50
2022-11-04T05:02:15.664Z,81.40
2022-11-04T05:04:42.889Z,81.40
2022-11-04T05:07:10.041Z,81.30
2022-11-04T05:09:37.610Z,81.50
2022-11-04T05:12:04.671Z,81.30
2022-11-04T05:14:31.825Z,81.30
2022-11-04T05:16:58.946Z,81.30
2022-11-04T05:19:26.304Z,81.30
2022-11-04T05:21:53.103Z,81.30
2022-11-04T05:24:19.974Z,81.30
2022-11-04T05:26:46.925Z,81.30
2022-11-04T05:31:42.651Z,81.30
2022-11-04T05:34:13.827Z,81.30
2022-11-04T05:36:41.220Z,81.30
2022-11-04T05:39:08.288Z,81.30
2022-11-04T05:41:35.563Z,81.40
2022-11-04T05:44:04.161Z,81.40
2022-11-04T05:46:31.747Z,81.40
2022-11-04T05:48:58.749Z,81.40
2022-11-04T05:51:28.613Z,81.40
2022-11-04T05:53:55.590Z,81.40
2022-11-04T05:56:22.597Z,81.40
2022-11-04T05:58:49.503Z,81.40
2022-11-04T06:01:33.173Z,81.50
2022-11-04T06:04:01.990Z,81.60
2022-11-04T06:06:32.580Z,81.40
2022-11-04T06:08:59.894Z,81.40
2022-11-04T06:11:29.577Z,81.30
2022-11-04T06:13:57.471Z,81.30
2022-11-04T06:16:24.697Z,81.20
2022-11-04T06:18:52.483Z,81.20
2022-11-04T06:21:31.929Z,81.20
2022-11-04T06:23:59.823Z,81.30
2022-11-04T06:26:28.811Z,81.20
2022-11-04T06:28:57.212Z,81.30
2022-11-04T06:31:24.176Z,81.30
2022-11-04T06:33:51.258Z,81.40
2022-11-04T06:36:18.430Z,81.40
2022-11-04T06:38:45.795Z,81.50
2022-11-04T06:41:16.452Z,81.40
2022-11-04T06:43:44.184Z,81.40
2022-11-04T06:46:35.547Z,81.40
2022-11-04T06:49:03.721Z,81.50
2022-11-04T06:51:31.113Z,81.30
2022-11-04T06:53:58.013Z,81.30
2022-11-04T06:56:25.417Z,81.40
2022-11-04T06:58:54.321Z,81.30
2022-11-04T07:01:24.074Z,81.30
2022-11-04T07:03:53.992Z,81.30
2022-11-04T07:06:21.846Z,81.20
2022-11-04T07:08:50.714Z,81.20
2022-11-04T07:11:21.444Z,81.40
2022-11-04T07:13:49.095Z,81.50
2022-11-04T07:16:16.553Z,81.40
2022-11-04T07:18:43.727Z,81.30
2022-11-04T07:21:11.621Z,81.40
2022-11-04T07:23:39.037Z,81.50
2022-11-04T07:26:09.120Z,81.50
2022-11-04T07:28:36.560Z,81.50
2022-11-04T07:31:06.411Z,81.50
2022-11-04T07:33:33.900Z,81.40
2022-11-04T07:36:11.636Z,81.40
2022-11-04T07:38:38.934Z,81.50
2022-11-04T07:41:06.003Z,81.30
2022-11-04T07:43:33.046Z,81.30
2022-11-04T07:46:13.110Z,81.40
2022-11-04T07:48:40.187Z,81.80
2022-11-04T07:51:11.190Z,81.70
2022-11-04T07:53:38.554Z,82.10
2022-11-04T07:56:07.530Z,82.40
2022-11-04T07:58:34.916Z,82.70
2022-11-04T08:01:12.589Z,83.10
2022-11-04T08:03:40.223Z,83.60
2022-11-04T08:06:10.614Z,83.70
2022-11-04T08:08:38.513Z,83.60
2022-11-04T08:11:17.129Z,83.50
2022-11-04T08:13:46.542Z,83.30
2022-11-04T08:16:17.252Z,82.90
2022-11-04T08:18:45.765Z,82.60
2022-11-04T08:21:13.618Z,82.20
2022-11-04T08:23:40.662Z,82.00
2022-11-04T08:26:10.000Z,81.90
2022-11-04T08:28:37.610Z,81.90
2022-11-04T08:31:18.693Z,81.70
2022-11-04T08:33:46.584Z,81.60
2022-11-04T08:36:29.803Z,81.50
2022-11-04T08:38:57.901Z,82.10
2022-11-04T08:41:29.172Z,81.30
2022-11-04T08:44:00.875Z,81.30
2022-11-04T08:46:29.353Z,81.30
2022-11-04T08:48:56.271Z,82.20
2022-11-04T08:51:27.383Z,81.70
2022-11-04T08:53:55.107Z,81.80
2022-11-04T08:56:27.579Z,81.80
2022-11-04T08:58:55.441Z,81.80
2022-11-04T09:01:22.802Z,81.60
2022-11-04T09:03:51.263Z,81.70
2022-11-04T09:06:27.439Z,81.90
2022-11-04T09:09:02.443Z,82.00
2022-11-04T09:11:31.757Z,82.00
2022-11-04T09:14:02.510Z,81.90
2022-11-04T09:16:33.759Z,82.10
2022-11-04T09:19:01.883Z,82.10
2022-11-04T09:21:29.876Z,82.10
2022-11-04T09:23:57.049Z,82.10
2022-11-04T09:26:25.523Z,82.10
2022-11-04T09:28:58.044Z,82.10
2022-11-04T09:31:28.430Z,81.90
2022-11-04T09:33:56.324Z,81.80
2022-11-04T09:36:23.940Z,81.60
2022-11-04T09:38:51.061Z,81.30
2022-11-04T09:41:48.955Z,81.00
2022-11-04T09:44:29.376Z,80.80
2022-11-04T09:47:02.104Z,80.60
2022-11-04T09:49:36.699Z,80.40
2022-11-04T09:52:16.485Z,80.30
2022-11-04T09:55:14.170Z,80.00
2022-11-04T09:57:41.558Z,79.60
2022-11-04T10:00:16.048Z,79.50
2022-11-04T10:03:16.459Z,79.00
2022-11-04T10:06:40.936Z,78.50
2022-11-04T10:09:30.546Z,77.90
2022-11-04T10:12:21.863Z,77.40
2022-11-04T10:15:15.948Z,76.90
2022-11-04T10:18:18.751Z,76.60
2022-11-04T10:21:06.229Z,76.00
2022-11-04T10:23:44.280Z,75.90
2022-11-04T10:26:30.699Z,75.50
2022-11-04T10:29:05.307Z,75.40
2022-11-04T10:31:34.593Z,75.40
2022-11-04T10:34:15.635Z,75.40
2022-11-04T10:36:43.425Z,75.30
2022-11-04T10:39:23.436Z,75.30
2022-11-04T10:41:50.787Z,75.30
2022-11-04T10:44:28.656Z,75.20
2022-11-04T10:47:17.081Z,75.20
2022-11-04T10:50:33.370Z,75.30
2022-11-04T10:53:30.296Z,75.40
2022-11-04T10:56:10.952Z,75.20
2022-11-04T10:58:46.375Z,75.00
2022-11-04T11:01:30.240Z,74.90
2022-11-04T11:03:59.367Z,74.80
2022-11-04T11:06:33.035Z,74.60
2022-11-04T11:09:38.254Z,74.10
2022-11-04T11:12:54.068Z,74.40
2022-11-04T11:15:44.303Z,74.10
2022-11-04T11:18:38.617Z,73.90
2022-11-04T11:21:37.138Z,73.70
2022-11-04T11:24:34.377Z,73.50
2022-11-04T11:27:33.104Z,73.60
2022-11-04T11:30:20.353Z,73.30
2022-11-04T11:33:07.478Z,73.20
2022-11-04T11:36:03.237Z,73.20
2022-11-04T11:38:53.890Z,73.10
2022-11-04T11:41:45.256Z,73.30
2022-11-04T11:44:55.363Z,73.30
2022-11-04T11:47:56.804Z,73.00
2022-11-04T11:50:54.566Z,73.20
2022-11-04T11:53:41.689Z,73.30
2022-11-04T11:57:25.050Z,73.60
2022-11-04T12:03:31.218Z,73.40
2022-11-04T12:06:29.837Z,73.50
2022-11-04T12:09:34.404Z,73.60
2022-11-04T12:12:23.079Z,73.60
2022-11-04T12:14:56.978Z,73.80
2022-11-04T12:18:01.654Z,74.20
2022-11-04T12:20:58.087Z,74.40
2022-11-04T12:24:16.244Z,74.10
2022-11-04T12:28:12.573Z,74.20
2022-11-04T12:31:09.719Z,74.40
2022-11-04T12:34:03.111Z,74.70
2022-11-04T12:37:53.854Z,74.80
2022-11-04T12:40:26.659Z,75.10
2022-11-04T12:43:09.527Z,75.00
2022-11-04T12:46:16.683Z,74.90
2022-11-04T12:49:18.347Z,75.00
2022-11-04T12:52:19.827Z,75.20
2022-11-04T12:55:22.307Z,75.20
2022-11-04T12:58:27.705Z,75.40
2022-11-04T13:01:23.345Z,75.30
2022-11-04T13:04:04.078Z,75.40
2022-11-04T13:06:41.635Z,75.50
2022-11-04T13:09:26.692Z,75.70
2022-11-04T13:12:18.743Z,75.80
2022-11-04T13:14:58.703Z,75.80
2022-11-04T13:17:35.632Z,75.80
2022-11-04T13:20:21.586Z,75.70
2022-11-04T13:22:51.864Z,75.90
2022-11-04T13:25:35.270Z,75.90
2022-11-04T13:28:03.942Z,75.90
2022-11-04T13:30:37.785Z,75.90
2022-11-04T13:33:28.160Z,75.90
2022-11-04T13:36:40.557Z,76.10
2022-11-04T13:39:19.631Z,76.20
2022-11-04T13:42:21.734Z,76.10
2022-11-04T13:44:52.612Z,76.20
2022-11-04T13:47:27.037Z,76.10
2022-11-04T13:49:56.271Z,76.10
2022-11-04T13:52:36.369Z,76.20
2022-11-04T13:55:08.395Z,76.20
2022-11-04T13:57:57.068Z,76.20
2022-11-04T14:00:30.222Z,76.40
2022-11-04T14:03:21.434Z,76.20
2022-11-04T14:06:05.230Z,76.30
2022-11-04T14:08:33.120Z,76.60
2022-11-04T14:11:05.994Z,76.70
2022-11-04T14:13:37.894Z,76.80
2022-11-04T14:16:11.624Z,76.90
2022-11-04T14:18:41.537Z,77.20
2022-11-04T14:21:14.205Z,77.30
2022-11-04T14:23:46.107Z,77.30
2022-11-04T14:26:16.455Z,77.30
2022-11-04T14:28:47.771Z,77.30
2022-11-04T14:31:35.869Z,77.40
2022-11-04T14:34:04.359Z,77.30
2022-11-04T14:36:40.654Z,77.30
2022-11-04T14:39:10.558Z,77.20
2022-11-04T14:41:40.258Z,77.10
2022-11-04T14:44:13.246Z,77.00
2022-11-04T14:46:46.468Z,77.00
2022-11-04T14:49:50.403Z,77.00
2022-11-04T14:52:26.598Z,77.10
2022-11-04T14:55:02.238Z,77.10
2022-11-04T14:57:35.347Z,77.10
2022-11-04T15:00:26.652Z,77.20
2022-11-04T15:06:11.619Z,77.50
2022-11-04T15:08:41.358Z,77.30
2022-11-04T15:11:16.640Z,77.40
2022-11-04T15:13:50.497Z,77.50
2022-11-04T15:16:27.188Z,77.50
2022-11-04T15:18:56.417Z,77.70
2022-11-04T15:21:23.826Z,77.70
2022-11-04T15:23:56.090Z,77.80
2022-11-04T15:26:30.023Z,78.00
2022-11-04T15:29:00.947Z,78.10
2022-11-04T15:31:31.423Z,78.00
2022-11-04T15:34:01.689Z,78.10
2022-11-04T15:36:37.433Z,78.10
2022-11-04T15:39:19.947Z,78.30
2022-11-04T15:42:06.475Z,78.20
2022-11-04T15:44:37.429Z,78.10
2022-11-04T15:47:27.159Z,78.10
2022-11-04T15:50:03.385Z,78.30
2022-11-04T15:52:30.544Z,78.80
2022-11-04T15:54:59.556Z,78.10
2022-11-04T15:57:32.827Z,78.10
2022-11-04T16:00:08.610Z,78.20
2022-11-04T16:02:57.784Z,78.30
2022-11-04T16:05:38.060Z,78.30
2022-11-04T16:08:24.259Z,78.30
2022-11-04T16:11:11.807Z,78.40
2022-11-04T16:13:39.786Z,78.30
2022-11-04T16:16:26.959Z,78.30
2022-11-04T16:18:56.893Z,78.50
2022-11-04T16:21:30.567Z,78.40
2022-11-04T16:24:22.329Z,78.40
2022-11-04T16:26:50.366Z,78.50
2022-11-04T16:29:36.900Z,78.40
2022-11-04T16:32:37.725Z,78.50
2022-11-04T16:35:15.386Z,78.40
2022-11-04T16:37:42.329Z,78.40
2022-11-04T16:40:09.710Z,78.30
2022-11-04T16:42:37.203Z,78.30
2022-11-04T16:45:05.342Z,78.30
2022-11-04T16:47:34.662Z,78.30
2022-11-04T16:50:02.417Z,78.30
2022-11-04T16:52:30.656Z,78.30
2022-11-04T16:54:57.610Z,78.30
2022-11-04T16:57:25.832Z,78.30
2022-11-04T16:59:52.884Z,78.30
2022-11-04T17:02:28.694Z,78.30
2022-11-04T17:04:56.105Z,78.20
2022-11-04T17:07:40.267Z,78.30
2022-11-04T17:10:18.690Z,78.30
2022-11-04T17:12:46.716Z,78.30
2022-11-04T17:15:15.337Z,78.20
2022-11-04T17:17:43.254Z,78.20
2022-11-04T17:20:17.996Z,78.30
2022-11-04T17:22:47.010Z,78.30
2022-11-04T17:25:22.634Z,78.20
2022-11-04T17:27:50.400Z,78.20
2022-11-04T17:30:18.720Z,78.10
2022-11-04T17:32:46.655Z,78.00
2022-11-04T17:35:14.200Z,77.90
2022-11-04T17:37:41.484Z,77.90
2022-11-04T17:40:13.991Z,77.70
2022-11-04T17:42:59.504Z,77.70
2022-11-04T17:45:26.554Z,77.60
2022-11-04T17:47:53.395Z,77.60
2022-11-04T17:50:20.651Z,77.50
2022-11-04T17:52:49.328Z,77.70
2022-11-04T17:55:19.700Z,77.60
2022-11-04T17:57:48.994Z,77.70
2022-11-04T18:00:16.331Z,77.60
2022-11-04T18:02:43.584Z,77.50
2022-11-04T18:05:10.925Z,77.60
2022-11-04T18:07:37.773Z,77.50
2022-11-04T18:10:05.371Z,77.60
2022-11-04T18:12:38.334Z,77.60
2022-11-04T18:15:08.693Z,77.60
2022-11-04T18:17:40.504Z,77.60
2022-11-04T18:20:13.917Z,78.40
2022-11-04T18:22:42.818Z,77.60
2022-11-04T18:25:11.059Z,77.60
2022-11-04T18:27:38.204Z,77.70
2022-11-04T18:30:05.934Z,77.80
2022-11-04T18:32:33.326Z,77.80
2022-11-04T18:35:00.160Z,77.80
2022-11-04T18:37:28.963Z,77.70
2022-11-04T18:39:55.837Z,77.80
2022-11-04T18:42:23.160Z,78.00
2022-11-04T18:44:50.484Z,77.90
2022-11-04T18:47:17.903Z,78.10
2022-11-04T18:49:44.827Z,78.20
2022-11-04T18:52:11.857Z,78.30
2022-11-04T18:54:38.877Z,78.30
2022-11-04T18:57:06.008Z,78.50
2022-11-04T18:59:32.914Z,78.60
2022-11-04T19:01:59.958Z,78.80
2022-11-04T19:04:27.118Z,79.10
2022-11-04T19:06:54.159Z,79.00
2022-11-04T19:12:27.956Z,79.20
2022-11-04T19:14:54.973Z,79.20
2022-11-04T19:17:22.294Z,79.40
2022-11-04T19:19:49.831Z,79.40
2022-11-04T19:22:16.711Z,79.50
2022-11-04T19:24:43.806Z,79.50
2022-11-04T19:27:10.832Z,79.70
2022-11-04T19:29:38.172Z,79.60
2022-11-04T19:32:09.574Z,79.70
2022-11-04T19:34:40.187Z,79.80
2022-11-04T19:37:07.030Z,79.80
2022-11-04T19:39:34.049Z,79.80
2022-11-04T19:42:19.355Z,80.00
2022-11-04T19:44:46.443Z,79.90
2022-11-04T19:47:13.438Z,80.00
2022-11-04T19:49:40.718Z,80.00
2022-11-04T19:52:08.754Z,80.10
2022-11-04T19:54:35.864Z,80.10
2022-11-04T19:57:02.889Z,80.20
2022-11-04T19:59:29.716Z,80.20
2022-11-04T20:01:56.639Z,80.20
2022-11-04T20:04:24.191Z,80.30
2022-11-04T20:06:51.011Z,80.40
2022-11-04T20:09:18.520Z,80.40
2022-11-04T20:12:03.810Z,80.30
2022-11-04T20:14:30.763Z,80.40
2022-11-04T20:16:57.622Z,80.40
2022-11-04T20:19:24.902Z,80.30
2022-11-04T20:21:51.765Z,80.30
2022-11-04T20:24:18.996Z,80.40
2022-11-04T20:26:49.122Z,80.50
2022-11-04T20:29:16.668Z,80.50
2022-11-04T20:31:44.613Z,80.60
2022-11-04T20:34:14.705Z,80.60
2022-11-04T20:36:42.191Z,80.70
2022-11-04T20:39:15.021Z,80.60
2022-11-04T20:41:42.849Z,80.70
2022-11-04T20:44:11.942Z,80.70
2022-11-04T20:46:39.866Z,80.70
2022-11-04T20:49:07.974Z,80.70
2022-11-04T20:51:39.021Z,80.70
2022-11-04T20:54:07.139Z,80.80
2022-11-04T20:56:36.872Z,80.90
2022-11-04T20:59:05.994Z,80.90
2022-11-04T21:01:37.276Z,80.90
2022-11-04T21:04:14.937Z,81.10
2022-11-04T21:06:42.830Z,81.10
2022-11-04T21:09:12.916Z,81.00
2022-11-04T21:11:41.091Z,81.00
2022-11-04T21:14:12.410Z,81.00
2022-11-04T21:16:39.927Z,81.00
2022-11-04T21:19:07.643Z,80.90
2022-11-04T21:21:35.404Z,80.90
2022-11-04T21:24:05.717Z,80.80
2022-11-04T21:26:35.411Z,80.80
2022-11-04T21:29:06.323Z,80.80
2022-11-04T21:31:36.628Z,80.70
2022-11-04T21:34:04.778Z,80.70
2022-11-04T21:36:32.726Z,80.70
2022-11-04T21:39:00.306Z,80.70
2022-11-04T21:41:33.109Z,81.40
2022-11-04T21:44:02.641Z,80.60
2022-11-04T21:46:32.339Z,80.70
2022-11-04T21:49:00.862Z,80.60
2022-11-04T21:51:31.358Z,80.70
2022-11-04T21:53:59.250Z,80.60
2022-11-04T21:56:29.554Z,80.70
2022-11-04T21:58:57.148Z,80.80
2022-11-04T22:01:27.434Z,81.00
2022-11-04T22:04:00.843Z,81.20
2022-11-04T22:06:34.008Z,81.30
2022-11-04T22:09:04.893Z,81.40
2022-11-04T22:11:34.157Z,81.40
2022-11-04T22:14:04.693Z,81.30
2022-11-04T22:16:34.117Z,81.20
2022-11-04T22:19:04.246Z,81.20
2022-11-04T22:21:32.607Z,81.20
2022-11-04T22:24:00.829Z,81.30
2022-11-04T22:26:30.847Z,81.30
2022-11-04T22:28:58.816Z,81.40
2022-11-04T22:31:29.826Z,81.40
2022-11-04T22:33:58.032Z,81.50
2022-11-04T22:36:24.844Z,81.60
2022-11-04T22:38:51.937Z,81.40
2022-11-04T22:41:23.464Z,81.70
2022-11-04T22:43:50.492Z,81.80
2022-11-04T22:46:25.523Z,81.80
2022-11-04T22:48:52.922Z,82.00
2022-11-04T22:51:20.082Z,82.00
2022-11-04T22:53:55.906Z,82.00
2022-11-04T22:56:24.983Z,81.90
2022-11-04T22:58:54.268Z,82.10
2022-11-04T23:01:22.261Z,82.20
2022-11-04T23:03:51.819Z,82.40
2022-11-04T23:06:20.035Z,82.70
2022-11-04T23:08:46.908Z,83.00
2022-11-04T23:11:40.926Z,83.20
2022-11-04T23:14:31.642Z,83.50
2022-11-04T23:17:17.964Z,83.50
2022-11-04T23:19:45.135Z,83.60
2022-11-04T23:22:30.478Z,83.80
2022-11-04T23:25:06.183Z,83.90
2022-11-04T23:28:03.273Z,84.00
2022-11-04T23:30:41.129Z,84.00
2022-11-04T23:33:11.799Z,84.10
2022-11-04T23:36:05.947Z,84.10
2022-11-04T23:38:35.335Z,84.00
2022-11-04T23:41:24.598Z,83.90
2022-11-04T23:43:52.114Z,83.90
2022-11-04T23:46:42.632Z,83.80
2022-11-04T23:49:30.085Z,83.90
2022-11-04T23:52:15.586Z,83.80
2022-11-04T23:55:01.232Z,83.60
2022-11-04T23:57:46.689Z,83.50
